sensor_id;sensor_type;location;lat;lon;timestamp;temperature;humidity
17489;DHT22;8861;52.644;4.734;2023-03-30T00:02:21;13.40;99.90
17489;DHT22;8861;52.644;4.734;2023-03-30T00:04:48;13.40;99.90
17489;DHT22;8861;52.644;4.734;2023-03-30T00:07:16;13.40;99.90
17489;DHT22;8861;52.644;4.734;2023-03-30T00:09:44;13.40;99.90
17489;DHT22;8861;52.644;4.734;2023-03-30T00:12:12;13.50;99.90
17489;DHT22;8861;52.644;4.734;2023-03-30T00:14:40;13.50;99.90
17489;DHT22;8861;52.644;4.734;2023-03-30T00:17:08;13.50;99.90
17489;DHT22;8861;52.644;4.734;2023-03-30T00:19:35;13.50;99.90
17489;DHT22;8861;52.644;4.734;2023-03-30T00:22:03;13.40;99.90
17489;DHT22;8861;52.644;4.734;2023-03-30T00:24:31;13.30;99.90
17489;DHT22;8861;52.644;4.734;2023-03-30T00:26:59;13.20;99.90
17489;DHT22;8861;52.644;4.734;2023-03-30T00:29:26;13.20;99.90
17489;DHT22;8861;52.644;4.734;2023-03-30T00:31:53;13.20;99.90
17489;DHT22;8861;52.644;4.734;2023-03-30T00:34:20;13.10;99.90
17489;DHT22;8861;52.644;4.734;2023-03-30T00:36:47;13.00;99.90
17489;DHT22;8861;52.644;4.734;2023-03-30T00:39:18;13.00;99.90
17489;DHT22;8861;52.644;4.734;2023-03-30T00:41:47;13.00;99.90
17489;DHT22;8861;52.644;4.734;2023-03-30T00:47:21;12.80;99.90
17489;DHT22;8861;52.644;4.734;2023-03-30T00:49:48;12.80;99.90
17489;DHT22;8861;52.644;4.734;2023-03-30T00:52:15;12.70;99.90
17489;DHT22;8861;52.644;4.734;2023-03-30T00:54:44;12.60;99.90
17489;DHT22;8861;52.644;4.734;2023-03-30T00:57:12;12.60;99.90
17489;DHT22;8861;52.644;4.734;2023-03-30T00:59:39;12.60;99.90
17489;DHT22;8861;52.644;4.734;2023-03-30T01:02:06;12.60;99.90
17489;DHT22;8861;52.644;4.734;2023-03-30T01:04:35;12.60;99.90
17489;DHT22;8861;52.644;4.734;2023-03-30T01:07:04;12.60;99.90
17489;DHT22;8861;52.644;4.734;2023-03-30T01:09:31;12.60;99.90
17489;DHT22;8861;52.644;4.734;2023-03-30T01:11:58;12.60;99.90
17489;DHT22;8861;52.644;4.734;2023-03-30T01:14:25;12.50;99.90
17489;DHT22;8861;52.644;4.734;2023-03-30T01:16:55;12.40;99.90
17489;DHT22;8861;52.644;4.734;2023-03-30T01:22:40;12.30;99.90
17489;DHT22;8861;52.644;4.734;2023-03-30T01:25:37;12.30;99.90
17489;DHT22;8861;52.644;4.734;2023-03-30T01:28:24;12.20;99.90
17489;DHT22;8861;52.644;4.734;2023-03-30T01:31:07;12.20;99.90
17489;DHT22;8861;52.644;4.734;2023-03-30T01:37:01;12.10;99.90
17489;DHT22;8861;52.644;4.734;2023-03-30T01:39:41;12.10;99.90
17489;DHT22;8861;52.644;4.734;2023-03-30T01:42:17;12.00;99.90
17489;DHT22;8861;52.644;4.734;2023-03-30T01:44:51;11.90;99.90
17489;DHT22;8861;52.644;4.734;2023-03-30T01:47:22;11.90;99.90
17489;DHT22;8861;52.644;4.734;2023-03-30T01:49:55;11.80;99.90
17489;DHT22;8861;52.644;4.734;2023-03-30T01:52:26;11.80;99.90
17489;DHT22;8861;52.644;4.734;2023-03-30T01:55:00;11.80;99.90
17489;DHT22;8861;52.644;4.734;2023-03-30T01:57:32;11.80;99.90
17489;DHT22;8861;52.644;4.734;2023-03-30T02:00:04;11.80;99.90
17489;DHT22;8861;52.644;4.734;2023-03-30T02:02:40;11.80;99.90
17489;DHT22;8861;52.644;4.734;2023-03-30T02:05:10;11.70;99.90
17489;DHT22;8861;52.644;4.734;2023-03-30T02:07:43;11.70;99.90
17489;DHT22;8861;52.644;4.734;2023-03-30T02:10:13;11.70;99.90
17489;DHT22;8861;52.644;4.734;2023-03-30T02:12:43;11.80;99.90
17489;DHT22;8861;52.644;4.734;2023-03-30T02:15:11;11.80;99.90
17489;DHT22;8861;52.644;4.734;2023-03-30T02:17:40;11.80;99.90
17489;DHT22;8861;52.644;4.734;2023-03-30T02:20:10;11.80;99.90
17489;DHT22;8861;52.644;4.734;2023-03-30T02:22:38;11.90;99.90
17489;DHT22;8861;52.644;4.734;2023-03-30T02:25:05;11.90;99.90
17489;DHT22;8861;52.644;4.734;2023-03-30T02:27:34;11.90;99.90
17489;DHT22;8861;52.644;4.734;2023-03-30T02:30:03;11.90;99.90
17489;DHT22;8861;52.644;4.734;2023-03-30T02:32:38;11.80;99.90
17489;DHT22;8861;52.644;4.734;2023-03-30T02:35:16;11.70;99.90
17489;DHT22;8861;52.644;4.734;2023-03-30T02:38:07;11.70;99.90
17489;DHT22;8861;52.644;4.734;2023-03-30T02:40:43;11.70;99.90
17489;DHT22;8861;52.644;4.734;2023-03-30T02:43:29;11.60;99.90
17489;DHT22;8861;52.644;4.734;2023-03-30T02:46:13;11.60;99.90
17489;DHT22;8861;52.644;4.734;2023-03-30T02:48:51;11.60;99.90
17489;DHT22;8861;52.644;4.734;2023-03-30T02:51:38;11.50;99.90
17489;DHT22;8861;52.644;4.734;2023-03-30T02:54:14;11.50;99.90
17489;DHT22;8861;52.644;4.734;2023-03-30T02:56:46;11.50;99.90
17489;DHT22;8861;52.644;4.734;2023-03-30T02:59:21;11.40;99.90
17489;DHT22;8861;52.644;4.734;2023-03-30T03:01:55;11.40;99.90
17489;DHT22;8861;52.644;4.734;2023-03-30T03:04:25;11.40;99.90
17489;DHT22;8861;52.644;4.734;2023-03-30T03:06:53;11.40;99.90
17489;DHT22;8861;52.644;4.734;2023-03-30T03:09:21;11.50;99.90
17489;DHT22;8861;52.644;4.734;2023-03-30T03:11:49;11.50;99.90
17489;DHT22;8861;52.644;4.734;2023-03-30T03:14:17;11.50;99.90
17489;DHT22;8861;52.644;4.734;2023-03-30T03:16:45;11.50;99.90
17489;DHT22;8861;52.644;4.734;2023-03-30T03:19:12;11.50;99.90
17489;DHT22;8861;52.644;4.734;2023-03-30T03:21:40;11.50;99.90
17489;DHT22;8861;52.644;4.734;2023-03-30T03:24:07;11.60;99.90
17489;DHT22;8861;52.644;4.734;2023-03-30T03:26:37;11.60;99.90
17489;DHT22;8861;52.644;4.734;2023-03-30T03:29:05;11.60;99.90
17489;DHT22;8861;52.644;4.734;2023-03-30T03:31:31;11.60;99.90
17489;DHT22;8861;52.644;4.734;2023-03-30T03:34:00;11.60;99.90
17489;DHT22;8861;52.644;4.734;2023-03-30T03:36:27;11.60;99.90
17489;DHT22;8861;52.644;4.734;2023-03-30T03:38:55;11.60;99.90
17489;DHT22;8861;52.644;4.734;2023-03-30T03:41:22;11.60;99.90
17489;DHT22;8861;52.644;4.734;2023-03-30T03:43:49;11.70;99.90
17489;DHT22;8861;52.644;4.734;2023-03-30T03:46:15;11.70;99.90
17489;DHT22;8861;52.644;4.734;2023-03-30T03:48:42;11.80;99.90
17489;DHT22;8861;52.644;4.734;2023-03-30T03:51:12;11.80;99.90
17489;DHT22;8861;52.644;4.734;2023-03-30T03:53:39;11.80;99.90
17489;DHT22;8861;52.644;4.734;2023-03-30T03:56:06;11.80;99.90
17489;DHT22;8861;52.644;4.734;2023-03-30T03:58:33;11.80;99.90
17489;DHT22;8861;52.644;4.734;2023-03-30T04:01:01;11.80;99.90
17489;DHT22;8861;52.644;4.734;2023-03-30T04:03:28;11.80;99.90
17489;DHT22;8861;52.644;4.734;2023-03-30T04:05:57;11.80;99.90
17489;DHT22;8861;52.644;4.734;2023-03-30T04:08:27;11.80;99.90
17489;DHT22;8861;52.644;4.734;2023-03-30T04:10:54;11.80;99.90
17489;DHT22;8861;52.644;4.734;2023-03-30T04:13:21;11.70;99.90
17489;DHT22;8861;52.644;4.734;2023-03-30T04:15:47;11.70;99.90
17489;DHT22;8861;52.644;4.734;2023-03-30T04:18:15;11.60;99.90
17489;DHT22;8861;52.644;4.734;2023-03-30T04:20:42;11.60;99.90
17489;DHT22;8861;52.644;4.734;2023-03-30T04:23:09;11.50;99.90
17489;DHT22;8861;52.644;4.734;2023-03-30T04:25:47;11.40;99.90
17489;DHT22;8861;52.644;4.734;2023-03-30T04:28:16;11.40;99.90
17489;DHT22;8861;52.644;4.734;2023-03-30T04:30:46;11.40;99.90
17489;DHT22;8861;52.644;4.734;2023-03-30T04:33:13;11.40;99.90
17489;DHT22;8861;52.644;4.734;2023-03-30T04:35:40;11.30;99.90
17489;DHT22;8861;52.644;4.734;2023-03-30T04:38:07;11.20;99.90
17489;DHT22;8861;52.644;4.734;2023-03-30T04:40:34;11.20;99.90
17489;DHT22;8861;52.644;4.734;2023-03-30T04:43:02;11.20;99.90
17489;DHT22;8861;52.644;4.734;2023-03-30T04:45:29;11.20;99.90
17489;DHT22;8861;52.644;4.734;2023-03-30T04:47:56;11.20;99.90
17489;DHT22;8861;52.644;4.734;2023-03-30T04:50:23;11.10;99.90
17489;DHT22;8861;52.644;4.734;2023-03-30T04:52:50;11.10;99.90
17489;DHT22;8861;52.644;4.734;2023-03-30T04:55:17;11.10;99.90
17489;DHT22;8861;52.644;4.734;2023-03-30T04:57:44;11.10;99.90
17489;DHT22;8861;52.644;4.734;2023-03-30T05:00:13;11.20;99.90
17489;DHT22;8861;52.644;4.734;2023-03-30T05:02:42;11.20;99.90
17489;DHT22;8861;52.644;4.734;2023-03-30T05:05:09;11.30;99.90
17489;DHT22;8861;52.644;4.734;2023-03-30T05:07:36;11.30;99.90
17489;DHT22;8861;52.644;4.734;2023-03-30T05:10:03;11.40;99.90
17489;DHT22;8861;52.644;4.734;2023-03-30T05:12:30;11.40;99.90
17489;DHT22;8861;52.644;4.734;2023-03-30T05:14:57;11.30;99.90
17489;DHT22;8861;52.644;4.734;2023-03-30T05:17:25;11.40;99.90
17489;DHT22;8861;52.644;4.734;2023-03-30T05:19:52;11.40;99.90
17489;DHT22;8861;52.644;4.734;2023-03-30T05:22:19;11.30;99.90
17489;DHT22;8861;52.644;4.734;2023-03-30T05:24:46;11.30;99.90
17489;DHT22;8861;52.644;4.734;2023-03-30T05:27:13;11.40;99.90
17489;DHT22;8861;52.644;4.734;2023-03-30T05:29:40;11.30;99.90
17489;DHT22;8861;52.644;4.734;2023-03-30T05:32:07;11.40;99.90
17489;DHT22;8861;52.644;4.734;2023-03-30T05:34:35;11.40;99.90
17489;DHT22;8861;52.644;4.734;2023-03-30T05:37:02;11.40;99.90
17489;DHT22;8861;52.644;4.734;2023-03-30T05:39:29;11.40;99.90
17489;DHT22;8861;52.644;4.734;2023-03-30T05:41:56;11.40;99.90
17489;DHT22;8861;52.644;4.734;2023-03-30T05:44:23;11.40;99.90
17489;DHT22;8861;52.644;4.734;2023-03-30T05:46:50;11.40;99.90
17489;DHT22;8861;52.644;4.734;2023-03-30T05:49:17;11.40;99.90
17489;DHT22;8861;52.644;4.734;2023-03-30T05:51:46;11.40;99.90
17489;DHT22;8861;52.644;4.734;2023-03-30T05:54:13;11.40;99.90
17489;DHT22;8861;52.644;4.734;2023-03-30T05:56:40;11.30;99.90
17489;DHT22;8861;52.644;4.734;2023-03-30T05:59:08;11.40;99.90
17489;DHT22;8861;52.644;4.734;2023-03-30T06:01:35;11.40;99.90
17489;DHT22;8861;52.644;4.734;2023-03-30T06:04:02;11.40;99.90
17489;DHT22;8861;52.644;4.734;2023-03-30T06:06:29;11.40;99.90
17489;DHT22;8861;52.644;4.734;2023-03-30T06:08:58;11.40;99.90
17489;DHT22;8861;52.644;4.734;2023-03-30T06:11:25;11.40;99.90
17489;DHT22;8861;52.644;4.734;2023-03-30T06:13:52;11.40;99.90
17489;DHT22;8861;52.644;4.734;2023-03-30T06:16:19;11.40;99.90
17489;DHT22;8861;52.644;4.734;2023-03-30T06:18:47;11.40;99.90
17489;DHT22;8861;52.644;4.734;2023-03-30T06:21:14;11.40;99.90
17489;DHT22;8861;52.644;4.734;2023-03-30T06:23:40;11.40;99.90
17489;DHT22;8861;52.644;4.734;2023-03-30T06:26:09;11.40;99.90
17489;DHT22;8861;52.644;4.734;2023-03-30T06:28:36;11.40;99.90
17489;DHT22;8861;52.644;4.734;2023-03-30T06:31:07;11.50;99.90
17489;DHT22;8861;52.644;4.734;2023-03-30T06:33:34;11.50;99.90
17489;DHT22;8861;52.644;4.734;2023-03-30T06:36:02;11.50;99.90
17489;DHT22;8861;52.644;4.734;2023-03-30T06:38:30;11.50;99.90
17489;DHT22;8861;52.644;4.734;2023-03-30T06:40:57;11.60;99.90
17489;DHT22;8861;52.644;4.734;2023-03-30T06:43:25;11.60;99.90
17489;DHT22;8861;52.644;4.734;2023-03-30T06:45:53;11.60;99.90
17489;DHT22;8861;52.644;4.734;2023-03-30T06:48:22;11.60;99.90
17489;DHT22;8861;52.644;4.734;2023-03-30T06:50:49;11.60;99.90
17489;DHT22;8861;52.644;4.734;2023-03-30T06:53:17;11.60;99.90
17489;DHT22;8861;52.644;4.734;2023-03-30T06:55:49;11.70;99.90
17489;DHT22;8861;52.644;4.734;2023-03-30T06:58:16;11.70;99.90
17489;DHT22;8861;52.644;4.734;2023-03-30T07:00:44;11.80;99.90
17489;DHT22;8861;52.644;4.734;2023-03-30T07:03:11;11.80;99.90
17489;DHT22;8861;52.644;4.734;2023-03-30T07:05:38;11.80;99.90
17489;DHT22;8861;52.644;4.734;2023-03-30T07:08:06;11.90;99.90
17489;DHT22;8861;52.644;4.734;2023-03-30T07:10:33;11.80;99.90
17489;DHT22;8861;52.644;4.734;2023-03-30T07:13:00;11.80;99.90
17489;DHT22;8861;52.644;4.734;2023-03-30T07:15:27;11.70;99.90
17489;DHT22;8861;52.644;4.734;2023-03-30T07:17:55;11.70;99.90
17489;DHT22;8861;52.644;4.734;2023-03-30T07:20:22;11.70;99.90
17489;DHT22;8861;52.644;4.734;2023-03-30T07:22:49;11.50;99.90
17489;DHT22;8861;52.644;4.734;2023-03-30T07:25:16;11.40;99.90
17489;DHT22;8861;52.644;4.734;2023-03-30T07:27:44;11.30;99.90
17489;DHT22;8861;52.644;4.734;2023-03-30T07:30:12;11.20;99.90
17489;DHT22;8861;52.644;4.734;2023-03-30T07:32:39;11.20;99.90
17489;DHT22;8861;52.644;4.734;2023-03-30T07:35:08;11.20;99.90
17489;DHT22;8861;52.644;4.734;2023-03-30T07:37:35;11.20;99.90
17489;DHT22;8861;52.644;4.734;2023-03-30T07:40:05;11.30;99.90
17489;DHT22;8861;52.644;4.734;2023-03-30T07:42:35;11.30;99.90
17489;DHT22;8861;52.644;4.734;2023-03-30T07:45:02;11.30;99.90
17489;DHT22;8861;52.644;4.734;2023-03-30T07:47:29;11.40;99.90
17489;DHT22;8861;52.644;4.734;2023-03-30T07:49:56;11.40;99.90
17489;DHT22;8861;52.644;4.734;2023-03-30T07:52:24;11.60;99.90
17489;DHT22;8861;52.644;4.734;2023-03-30T07:54:52;11.80;99.90
17489;DHT22;8861;52.644;4.734;2023-03-30T07:57:19;11.90;99.90
17489;DHT22;8861;52.644;4.734;2023-03-30T07:59:46;12.00;99.90
17489;DHT22;8861;52.644;4.734;2023-03-30T08:02:14;12.00;99.90
17489;DHT22;8861;52.644;4.734;2023-03-30T08:04:41;11.90;99.90
17489;DHT22;8861;52.644;4.734;2023-03-30T08:07:09;11.80;99.90
17489;DHT22;8861;52.644;4.734;2023-03-30T08:09:38;12.00;99.90
17489;DHT22;8861;52.644;4.734;2023-03-30T08:12:06;12.20;99.90
17489;DHT22;8861;52.644;4.734;2023-03-30T08:14:33;12.40;99.90
17489;DHT22;8861;52.644;4.734;2023-03-30T08:17:00;12.60;99.90
17489;DHT22;8861;52.644;4.734;2023-03-30T08:19:28;12.70;99.90
17489;DHT22;8861;52.644;4.734;2023-03-30T08:21:55;12.70;99.90
17489;DHT22;8861;52.644;4.734;2023-03-30T08:24:22;12.80;99.90
17489;DHT22;8861;52.644;4.734;2023-03-30T08:26:50;12.90;99.90
17489;DHT22;8861;52.644;4.734;2023-03-30T08:29:18;13.00;99.90
17489;DHT22;8861;52.644;4.734;2023-03-30T08:31:45;13.10;99.90
17489;DHT22;8861;52.644;4.734;2023-03-30T08:34:12;13.10;99.90
17489;DHT22;8861;52.644;4.734;2023-03-30T08:36:39;13.10;99.90
17489;DHT22;8861;52.644;4.734;2023-03-30T08:39:07;13.20;99.90
17489;DHT22;8861;52.644;4.734;2023-03-30T08:44:36;12.80;99.90
17489;DHT22;8861;52.644;4.734;2023-03-30T08:47:07;12.70;99.90
17489;DHT22;8861;52.644;4.734;2023-03-30T08:49:40;12.60;99.90
17489;DHT22;8861;52.644;4.734;2023-03-30T08:52:12;12.50;99.90
17489;DHT22;8861;52.644;4.734;2023-03-30T08:54:43;12.50;99.90
17489;DHT22;8861;52.644;4.734;2023-03-30T08:57:15;12.40;99.90
17489;DHT22;8861;52.644;4.734;2023-03-30T08:59:51;12.40;99.90
17489;DHT22;8861;52.644;4.734;2023-03-30T09:02:22;12.30;99.90
17489;DHT22;8861;52.644;4.734;2023-03-30T09:04:55;12.30;99.90
17489;DHT22;8861;52.644;4.734;2023-03-30T09:07:27;12.40;99.90
17489;DHT22;8861;52.644;4.734;2023-03-30T09:09:58;12.40;99.90
17489;DHT22;8861;52.644;4.734;2023-03-30T09:12:33;12.40;99.90
17489;DHT22;8861;52.644;4.734;2023-03-30T09:15:05;12.40;99.90
17489;DHT22;8861;52.644;4.734;2023-03-30T09:17:38;12.50;99.90
17489;DHT22;8861;52.644;4.734;2023-03-30T09:20:12;12.40;99.90
17489;DHT22;8861;52.644;4.734;2023-03-30T09:22:42;12.40;99.90
17489;DHT22;8861;52.644;4.734;2023-03-30T09:25:18;12.50;99.90
17489;DHT22;8861;52.644;4.734;2023-03-30T09:27:53;12.50;99.90
17489;DHT22;8861;52.644;4.734;2023-03-30T09:30:36;12.50;99.90
17489;DHT22;8861;52.644;4.734;2023-03-30T09:33:09;12.50;99.90
17489;DHT22;8861;52.644;4.734;2023-03-30T09:35:40;12.60;99.90
17489;DHT22;8861;52.644;4.734;2023-03-30T09:38:10;12.60;99.90
17489;DHT22;8861;52.644;4.734;2023-03-30T09:40:50;12.70;99.90
17489;DHT22;8861;52.644;4.734;2023-03-30T09:43:31;12.70;99.90
17489;DHT22;8861;52.644;4.734;2023-03-30T09:46:01;12.80;99.90
17489;DHT22;8861;52.644;4.734;2023-03-30T09:48:37;12.80;99.90
17489;DHT22;8861;52.644;4.734;2023-03-30T09:51:17;12.90;99.90
17489;DHT22;8861;52.644;4.734;2023-03-30T09:53:46;12.90;99.90
17489;DHT22;8861;52.644;4.734;2023-03-30T09:56:20;12.90;99.90
17489;DHT22;8861;52.644;4.734;2023-03-30T09:58:47;12.80;99.90
17489;DHT22;8861;52.644;4.734;2023-03-30T10:01:18;12.80;99.90
17489;DHT22;8861;52.644;4.734;2023-03-30T10:04:04;12.80;99.90
17489;DHT22;8861;52.644;4.734;2023-03-30T10:06:36;12.80;99.90
17489;DHT22;8861;52.644;4.734;2023-03-30T10:09:05;12.80;99.90
17489;DHT22;8861;52.644;4.734;2023-03-30T10:11:39;12.80;99.90
17489;DHT22;8861;52.644;4.734;2023-03-30T10:14:19;12.80;99.90
17489;DHT22;8861;52.644;4.734;2023-03-30T10:16:49;12.80;99.90
17489;DHT22;8861;52.644;4.734;2023-03-30T10:19:18;12.90;99.90
17489;DHT22;8861;52.644;4.734;2023-03-30T10:21:46;13.10;99.90
17489;DHT22;8861;52.644;4.734;2023-03-30T10:24:20;13.10;99.90
17489;DHT22;8861;52.644;4.734;2023-03-30T10:26:51;13.10;99.90
17489;DHT22;8861;52.644;4.734;2023-03-30T10:29:24;13.10;99.90
17489;DHT22;8861;52.644;4.734;2023-03-30T10:31:58;13.00;99.90
17489;DHT22;8861;52.644;4.734;2023-03-30T10:34:32;13.00;99.90
17489;DHT22;8861;52.644;4.734;2023-03-30T10:37:04;12.90;99.90
17489;DHT22;8861;52.644;4.734;2023-03-30T10:39:33;12.80;99.90
17489;DHT22;8861;52.644;4.734;2023-03-30T10:42:01;12.80;99.90
17489;DHT22;8861;52.644;4.734;2023-03-30T10:44:31;12.70;99.90
17489;DHT22;8861;52.644;4.734;2023-03-30T10:47:10;12.70;99.90
17489;DHT22;8861;52.644;4.734;2023-03-30T10:49:50;12.60;99.90
17489;DHT22;8861;52.644;4.734;2023-03-30T10:52:25;12.80;99.90
17489;DHT22;8861;52.644;4.734;2023-03-30T10:54:59;12.90;99.90
17489;DHT22;8861;52.644;4.734;2023-03-30T10:57:34;12.90;99.90
17489;DHT22;8861;52.644;4.734;2023-03-30T11:00:16;12.90;99.90
17489;DHT22;8861;52.644;4.734;2023-03-30T11:02:57;13.00;99.90
17489;DHT22;8861;52.644;4.734;2023-03-30T11:05:28;13.10;99.90
17489;DHT22;8861;52.644;4.734;2023-03-30T11:08:00;13.10;99.90
17489;DHT22;8861;52.644;4.734;2023-03-30T11:10:30;13.10;99.90
17489;DHT22;8861;52.644;4.734;2023-03-30T11:13:01;13.10;99.90
17489;DHT22;8861;52.644;4.734;2023-03-30T11:15:33;13.20;99.90
17489;DHT22;8861;52.644;4.734;2023-03-30T11:18:05;13.10;99.90
17489;DHT22;8861;52.644;4.734;2023-03-30T11:20:40;13.10;99.90
17489;DHT22;8861;52.644;4.734;2023-03-30T11:23:24;13.20;99.90
17489;DHT22;8861;52.644;4.734;2023-03-30T11:25:59;13.20;99.90
17489;DHT22;8861;52.644;4.734;2023-03-30T11:28:47;13.20;99.90
17489;DHT22;8861;52.644;4.734;2023-03-30T11:31:29;13.30;99.90
17489;DHT22;8861;52.644;4.734;2023-03-30T11:34:04;13.30;99.90
17489;DHT22;8861;52.644;4.734;2023-03-30T11:36:36;13.40;99.90
17489;DHT22;8861;52.644;4.734;2023-03-30T11:39:10;13.30;99.90
17489;DHT22;8861;52.644;4.734;2023-03-30T11:41:42;13.30;99.90
17489;DHT22;8861;52.644;4.734;2023-03-30T11:44:11;13.40;99.90
17489;DHT22;8861;52.644;4.734;2023-03-30T11:46:41;13.40;99.90
17489;DHT22;8861;52.644;4.734;2023-03-30T11:49:33;13.50;99.90
17489;DHT22;8861;52.644;4.734;2023-03-30T11:52:08;13.50;99.90
17489;DHT22;8861;52.644;4.734;2023-03-30T11:55:17;13.60;99.90
17489;DHT22;8861;52.644;4.734;2023-03-30T11:57:54;13.60;99.90
17489;DHT22;8861;52.644;4.734;2023-03-30T12:00:29;13.70;99.90
17489;DHT22;8861;52.644;4.734;2023-03-30T12:03:07;13.70;99.90
17489;DHT22;8861;52.644;4.734;2023-03-30T12:05:41;13.70;99.90
17489;DHT22;8861;52.644;4.734;2023-03-30T12:08:19;13.80;99.90
17489;DHT22;8861;52.644;4.734;2023-03-30T12:10:54;14.10;99.90
17489;DHT22;8861;52.644;4.734;2023-03-30T12:13:26;14.50;99.90
17489;DHT22;8861;52.644;4.734;2023-03-30T12:15:56;14.90;99.90
17489;DHT22;8861;52.644;4.734;2023-03-30T12:18:35;15.10;99.90
17489;DHT22;8861;52.644;4.734;2023-03-30T12:21:25;15.30;99.90
17489;DHT22;8861;52.644;4.734;2023-03-30T12:24:00;15.50;99.90
17489;DHT22;8861;52.644;4.734;2023-03-30T12:26:31;15.50;99.90
17489;DHT22;8861;52.644;4.734;2023-03-30T12:29:09;15.50;99.90
17489;DHT22;8861;52.644;4.734;2023-03-30T12:32:03;15.40;99.90
17489;DHT22;8861;52.644;4.734;2023-03-30T12:34:32;15.30;99.90
17489;DHT22;8861;52.644;4.734;2023-03-30T12:37:04;15.40;99.90
17489;DHT22;8861;52.644;4.734;2023-03-30T12:39:35;15.50;99.90
17489;DHT22;8861;52.644;4.734;2023-03-30T12:42:16;15.60;99.90
17489;DHT22;8861;52.644;4.734;2023-03-30T12:44:58;15.60;99.90
17489;DHT22;8861;52.644;4.734;2023-03-30T12:47:46;15.60;99.90
17489;DHT22;8861;52.644;4.734;2023-03-30T12:50:26;15.50;99.90
17489;DHT22;8861;52.644;4.734;2023-03-30T12:53:21;15.40;99.90
17489;DHT22;8861;52.644;4.734;2023-03-30T12:55:53;15.50;99.90
17489;DHT22;8861;52.644;4.734;2023-03-30T12:58:52;15.60;99.90
17489;DHT22;8861;52.644;4.734;2023-03-30T13:01:43;15.60;99.90
17489;DHT22;8861;52.644;4.734;2023-03-30T13:04:13;15.60;99.90
17489;DHT22;8861;52.644;4.734;2023-03-30T13:06:47;15.70;99.90
17489;DHT22;8861;52.644;4.734;2023-03-30T13:09:50;15.60;99.90
17489;DHT22;8861;52.644;4.734;2023-03-30T13:12:32;15.50;99.90
17489;DHT22;8861;52.644;4.734;2023-03-30T13:15:03;15.50;99.90
17489;DHT22;8861;52.644;4.734;2023-03-30T13:17:47;15.70;99.90
17489;DHT22;8861;52.644;4.734;2023-03-30T13:20:17;15.70;99.90
17489;DHT22;8861;52.644;4.734;2023-03-30T13:22:59;15.60;99.90
17489;DHT22;8861;52.644;4.734;2023-03-30T13:25:37;15.50;99.90
17489;DHT22;8861;52.644;4.734;2023-03-30T13:31:29;15.10;99.90
17489;DHT22;8861;52.644;4.734;2023-03-30T13:34:05;14.90;99.90
17489;DHT22;8861;52.644;4.734;2023-03-30T13:36:39;14.80;99.90
17489;DHT22;8861;52.644;4.734;2023-03-30T13:39:17;14.80;99.90
17489;DHT22;8861;52.644;4.734;2023-03-30T13:41:55;14.90;99.90
17489;DHT22;8861;52.644;4.734;2023-03-30T13:44:41;15.10;99.90
17489;DHT22;8861;52.644;4.734;2023-03-30T13:47:23;15.30;99.90
17489;DHT22;8861;52.644;4.734;2023-03-30T13:49:57;15.40;99.90
17489;DHT22;8861;52.644;4.734;2023-03-30T13:52:29;15.60;99.90
17489;DHT22;8861;52.644;4.734;2023-03-30T13:54:58;15.70;99.90
17489;DHT22;8861;52.644;4.734;2023-03-30T13:57:32;15.80;99.90
17489;DHT22;8861;52.644;4.734;2023-03-30T14:00:03;15.90;99.90
17489;DHT22;8861;52.644;4.734;2023-03-30T14:02:31;16.00;99.90
17489;DHT22;8861;52.644;4.734;2023-03-30T14:05:11;16.00;99.90
17489;DHT22;8861;52.644;4.734;2023-03-30T14:07:41;15.90;99.90
17489;DHT22;8861;52.644;4.734;2023-03-30T14:10:13;15.70;99.90
17489;DHT22;8861;52.644;4.734;2023-03-30T14:12:43;15.50;99.90
17489;DHT22;8861;52.644;4.734;2023-03-30T14:15:19;15.30;99.90
17489;DHT22;8861;52.644;4.734;2023-03-30T14:17:49;15.20;99.90
17489;DHT22;8861;52.644;4.734;2023-03-30T14:20:27;15.00;99.90
17489;DHT22;8861;52.644;4.734;2023-03-30T14:22:57;15.00;99.90
17489;DHT22;8861;52.644;4.734;2023-03-30T14:25:26;15.00;99.90
17489;DHT22;8861;52.644;4.734;2023-03-30T14:27:56;15.20;99.90
17489;DHT22;8861;52.644;4.734;2023-03-30T14:30:25;15.30;99.90
17489;DHT22;8861;52.644;4.734;2023-03-30T14:33:07;15.30;99.90
17489;DHT22;8861;52.644;4.734;2023-03-30T14:35:37;15.40;99.90
17489;DHT22;8861;52.644;4.734;2023-03-30T14:38:05;15.60;99.90
17489;DHT22;8861;52.644;4.734;2023-03-30T14:40:36;15.80;99.90
17489;DHT22;8861;52.644;4.734;2023-03-30T14:43:05;16.20;99.90
17489;DHT22;8861;52.644;4.734;2023-03-30T14:45:36;16.70;99.90
17489;DHT22;8861;52.644;4.734;2023-03-30T14:48:03;17.50;99.90
17489;DHT22;8861;52.644;4.734;2023-03-30T14:50:30;18.20;99.90
17489;DHT22;8861;52.644;4.734;2023-03-30T14:52:57;18.30;99.90
17489;DHT22;8861;52.644;4.734;2023-03-30T14:55:26;18.10;99.90
17489;DHT22;8861;52.644;4.734;2023-03-30T14:57:53;17.70;99.90
17489;DHT22;8861;52.644;4.734;2023-03-30T15:00:23;17.50;99.90
17489;DHT22;8861;52.644;4.734;2023-03-30T15:02:52;17.20;99.90
17489;DHT22;8861;52.644;4.734;2023-03-30T15:05:23;16.70;99.90
17489;DHT22;8861;52.644;4.734;2023-03-30T15:07:51;16.30;99.90
17489;DHT22;8861;52.644;4.734;2023-03-30T15:10:24;16.20;99.90
17489;DHT22;8861;52.644;4.734;2023-03-30T15:12:53;16.10;99.90
17489;DHT22;8861;52.644;4.734;2023-03-30T15:15:25;16.00;99.90
17489;DHT22;8861;52.644;4.734;2023-03-30T15:17:54;15.80;99.90
17489;DHT22;8861;52.644;4.734;2023-03-30T15:20:23;15.70;99.90
17489;DHT22;8861;52.644;4.734;2023-03-30T15:22:52;15.70;99.90
17489;DHT22;8861;52.644;4.734;2023-03-30T15:25:21;15.80;99.90
17489;DHT22;8861;52.644;4.734;2023-03-30T15:27:52;15.90;99.90
17489;DHT22;8861;52.644;4.734;2023-03-30T15:30:28;16.00;99.90
17489;DHT22;8861;52.644;4.734;2023-03-30T15:32:57;15.70;99.90
17489;DHT22;8861;52.644;4.734;2023-03-30T15:35:26;15.40;99.90
17489;DHT22;8861;52.644;4.734;2023-03-30T15:37:55;15.20;99.90
17489;DHT22;8861;52.644;4.734;2023-03-30T15:40:28;15.10;99.90
17489;DHT22;8861;52.644;4.734;2023-03-30T15:43:16;15.10;99.90
17489;DHT22;8861;52.644;4.734;2023-03-30T15:45:47;15.00;99.90
17489;DHT22;8861;52.644;4.734;2023-03-30T15:48:19;14.80;99.90
17489;DHT22;8861;52.644;4.734;2023-03-30T15:50:52;14.60;99.90
17489;DHT22;8861;52.644;4.734;2023-03-30T15:53:30;14.40;99.90
17489;DHT22;8861;52.644;4.734;2023-03-30T15:55:58;14.30;99.90
17489;DHT22;8861;52.644;4.734;2023-03-30T15:58:26;14.20;99.90
17489;DHT22;8861;52.644;4.734;2023-03-30T16:00:55;14.10;99.90
17489;DHT22;8861;52.644;4.734;2023-03-30T16:03:36;14.00;99.90
17489;DHT22;8861;52.644;4.734;2023-03-30T16:06:09;14.00;99.90
17489;DHT22;8861;52.644;4.734;2023-03-30T16:08:37;14.00;99.90
17489;DHT22;8861;52.644;4.734;2023-03-30T16:11:08;14.00;99.90
17489;DHT22;8861;52.644;4.734;2023-03-30T16:13:39;14.00;99.90
17489;DHT22;8861;52.644;4.734;2023-03-30T16:16:08;13.90;99.90
17489;DHT22;8861;52.644;4.734;2023-03-30T16:18:38;13.90;99.90
17489;DHT22;8861;52.644;4.734;2023-03-30T16:21:06;13.80;99.90
17489;DHT22;8861;52.644;4.734;2023-03-30T16:23:35;13.80;99.90
17489;DHT22;8861;52.644;4.734;2023-03-30T16:26:02;13.90;99.90
17489;DHT22;8861;52.644;4.734;2023-03-30T16:28:30;14.10;99.90